sensor_id;sensor_type;location;lat;lon;timestamp;pressure;altitude;pressure_sealevel;temperature;humidity
62548;BME280;48602;45.192;5.722;2023-03-23T00:01:13;98999.03;;;15.09;55.16
62548;BME280;48602;45.192;5.722;2023-03-23T00:03:39;98993.09;;;15.05;55.06
62548;BME280;48602;45.192;5.722;2023-03-23T00:06:05;98977.53;;;14.99;55.37
62548;BME280;48602;45.192;5.722;2023-03-23T00:08:38;98983.59;;;15.01;55.90
62548;BME280;48602;45.192;5.722;2023-03-23T00:11:18;98987.38;;;14.97;55.96
62548;BME280;48602;45.192;5.722;2023-03-23T00:13:45;98990.19;;;14.94;55.95
62548;BME280;48602;45.192;5.722;2023-03-23T00:16:13;99000.06;;;14.92;55.77
62548;BME280;48602;45.192;5.722;2023-03-23T00:18:47;98999.50;;;14.87;56.17
62548;BME280;48602;45.192;5.722;2023-03-23T00:21:15;99010.38;;;14.82;55.73
62548;BME280;48602;45.192;5.722;2023-03-23T00:23:40;99008.84;;;14.78;56.61
62548;BME280;48602;45.192;5.722;2023-03-23T00:26:09;99013.38;;;14.76;56.74
62548;BME280;48602;45.192;5.722;2023-03-23T00:28:35;99004.84;;;14.71;56.16
62548;BME280;48602;45.192;5.722;2023-03-23T00:31:05;99001.34;;;14.71;56.31
62548;BME280;48602;45.192;5.722;2023-03-23T00:33:34;99016.34;;;14.72;56.59
62548;BME280;48602;45.192;5.722;2023-03-23T00:36:04;99017.19;;;14.72;56.50
62548;BME280;48602;45.192;5.722;2023-03-23T00:38:30;99011.97;;;14.71;55.99
62548;BME280;48602;45.192;5.722;2023-03-23T00:40:55;99005.81;;;14.70;56.53
62548;BME280;48602;45.192;5.722;2023-03-23T00:43:23;99021.72;;;14.70;56.57
62548;BME280;48602;45.192;5.722;2023-03-23T00:45:49;99020.19;;;14.66;57.24
62548;BME280;48602;45.192;5.722;2023-03-23T00:48:22;99022.06;;;14.64;56.99
62548;BME280;48602;45.192;5.722;2023-03-23T00:50:50;99023.09;;;14.61;57.34
62548;BME280;48602;45.192;5.722;2023-03-23T00:53:16;99026.69;;;14.60;57.38
62548;BME280;48602;45.192;5.722;2023-03-23T00:55:43;99019.88;;;14.56;57.13
62548;BME280;48602;45.192;5.722;2023-03-23T00:58:10;99024.59;;;14.51;57.67
62548;BME280;48602;45.192;5.722;2023-03-23T01:00:36;99018.59;;;14.48;57.47
62548;BME280;48602;45.192;5.722;2023-03-23T01:03:02;99009.09;;;14.44;57.80
62548;BME280;48602;45.192;5.722;2023-03-23T01:05:27;99010.63;;;14.48;57.86
62548;BME280;48602;45.192;5.722;2023-03-23T01:08:00;99012.25;;;14.50;57.47
62548;BME280;48602;45.192;5.722;2023-03-23T01:10:27;99014.84;;;14.52;57.60
62548;BME280;48602;45.192;5.722;2023-03-23T01:12:53;99002.44;;;14.52;57.91
62548;BME280;48602;45.192;5.722;2023-03-23T01:15:19;98995.50;;;14.50;57.52
62548;BME280;48602;45.192;5.722;2023-03-23T01:17:45;99004.31;;;14.50;57.31
62548;BME280;48602;45.192;5.722;2023-03-23T01:20:12;99019.38;;;14.50;57.74
62548;BME280;48602;45.192;5.722;2023-03-23T01:22:38;99027.66;;;14.44;58.14
62548;BME280;48602;45.192;5.722;2023-03-23T01:25:05;99024.41;;;14.39;58.66
62548;BME280;48602;45.192;5.722;2023-03-23T01:27:33;99013.53;;;14.27;59.46
62548;BME280;48602;45.192;5.722;2023-03-23T01:29:58;99007.75;;;14.21;59.25
62548;BME280;48602;45.192;5.722;2023-03-23T01:32:24;98999.34;;;14.13;59.10
62548;BME280;48602;45.192;5.722;2023-03-23T01:34:49;98997.94;;;14.07;58.86
62548;BME280;48602;45.192;5.722;2023-03-23T01:37:15;98985.00;;;14.01;59.24
62548;BME280;48602;45.192;5.722;2023-03-23T01:39:41;98989.63;;;13.97;59.27
62548;BME280;48602;45.192;5.722;2023-03-23T01:42:08;98987.03;;;13.96;60.32
62548;BME280;48602;45.192;5.722;2023-03-23T01:46:59;98982.00;;;13.91;60.12
62548;BME280;48602;45.192;5.722;2023-03-23T01:49:30;98978.69;;;13.88;59.78
62548;BME280;48602;45.192;5.722;2023-03-23T01:52:00;98977.84;;;13.87;59.99
62548;BME280;48602;45.192;5.722;2023-03-23T01:54:28;98972.63;;;13.86;60.44
62548;BME280;48602;45.192;5.722;2023-03-23T01:56:58;98981.59;;;13.83;60.30
62548;BME280;48602;45.192;5.722;2023-03-23T01:59:26;98971.94;;;13.82;60.34
62548;BME280;48602;45.192;5.722;2023-03-23T02:01:54;98978.94;;;13.83;61.01
62548;BME280;48602;45.192;5.722;2023-03-23T02:04:22;98962.25;;;13.81;60.21
62548;BME280;48602;45.192;5.722;2023-03-23T02:06:51;98948.84;;;13.84;60.15
62548;BME280;48602;45.192;5.722;2023-03-23T02:09:17;98940.13;;;13.82;60.53
62548;BME280;48602;45.192;5.722;2023-03-23T02:11:44;98943.53;;;13.84;60.35
62548;BME280;48602;45.192;5.722;2023-03-23T02:14:10;98953.03;;;13.88;59.85
62548;BME280;48602;45.192;5.722;2023-03-23T02:22:39;98942.34;;;14.06;59.57
62548;BME280;48602;45.192;5.722;2023-03-23T02:36:03;98936.06;;;14.22;58.96
62548;BME280;48602;45.192;5.722;2023-03-23T02:38:57;98922.53;;;14.27;59.36
62548;BME280;48602;45.192;5.722;2023-03-23T02:41:51;98920.63;;;14.29;58.98
62548;BME280;48602;45.192;5.722;2023-03-23T02:44:18;98918.75;;;14.31;59.40
62548;BME280;48602;45.192;5.722;2023-03-23T02:46:44;98916.88;;;14.33;59.31
62548;BME280;48602;45.192;5.722;2023-03-23T02:49:13;98912.34;;;14.35;59.24
62548;BME280;48602;45.192;5.722;2023-03-23T02:51:42;98911.31;;;14.38;59.25
62548;BME280;48602;45.192;5.722;2023-03-23T02:54:10;98916.47;;;14.41;59.32
62548;BME280;48602;45.192;5.722;2023-03-23T02:56:38;98925.25;;;14.41;59.37
62548;BME280;48602;45.192;5.722;2023-03-23T02:59:04;98918.41;;;14.37;59.05
62548;BME280;48602;45.192;5.722;2023-03-23T03:04:01;98936.25;;;14.19;60.31
62548;BME280;48602;45.192;5.722;2023-03-23T03:06:32;98929.81;;;14.08;60.14
62548;BME280;48602;45.192;5.722;2023-03-23T03:11:26;98917.38;;;13.94;60.23
62548;BME280;48602;45.192;5.722;2023-03-23T03:13:59;98920.47;;;13.86;60.21
62548;BME280;48602;45.192;5.722;2023-03-23T03:19:29;98926.44;;;13.74;60.92
62548;BME280;48602;45.192;5.722;2023-03-23T03:21:58;98926.88;;;13.67;60.80
62548;BME280;48602;45.192;5.722;2023-03-23T03:24:27;98918.50;;;13.58;61.29
62548;BME280;48602;45.192;5.722;2023-03-23T03:26:57;98919.63;;;13.54;61.41
62548;BME280;48602;45.192;5.722;2023-03-23T03:29:27;98922.53;;;13.50;61.29
62548;BME280;48602;45.192;5.722;2023-03-23T03:31:56;98918.31;;;13.46;61.63
62548;BME280;48602;45.192;5.722;2023-03-23T03:34:23;98920.28;;;13.42;61.68
62548;BME280;48602;45.192;5.722;2023-03-23T03:36:51;98912.53;;;13.39;61.98
62548;BME280;48602;45.192;5.722;2023-03-23T03:39:18;98918.00;;;13.36;61.72
62548;BME280;48602;45.192;5.722;2023-03-23T03:41:46;98924.22;;;13.35;61.52
62548;BME280;48602;45.192;5.722;2023-03-23T03:44:11;98921.72;;;13.32;61.23
62548;BME280;48602;45.192;5.722;2023-03-23T03:46:37;98921.72;;;13.32;61.35
62548;BME280;48602;45.192;5.722;2023-03-23T03:49:05;98914.72;;;13.31;61.22
62548;BME280;48602;45.192;5.722;2023-03-23T03:51:33;98911.31;;;13.29;61.53
62548;BME280;48602;45.192;5.722;2023-03-23T03:53:58;98911.31;;;13.29;61.02
62548;BME280;48602;45.192;5.722;2023-03-23T03:56:26;98912.16;;;13.30;61.28
62548;BME280;48602;45.192;5.722;2023-03-23T03:58:51;98915.66;;;13.30;60.90
62548;BME280;48602;45.192;5.722;2023-03-23T04:01:20;98913.88;;;13.31;60.83
62548;BME280;48602;45.192;5.722;2023-03-23T04:03:49;98914.72;;;13.31;60.69
62548;BME280;48602;45.192;5.722;2023-03-23T04:06:17;98909.44;;;13.31;60.67
62548;BME280;48602;45.192;5.722;2023-03-23T04:08:44;98913.00;;;13.30;60.56
62548;BME280;48602;45.192;5.722;2023-03-23T04:11:10;98901.66;;;13.28;60.74
62548;BME280;48602;45.192;5.722;2023-03-23T04:13:38;98909.50;;;13.30;60.57
62548;BME280;48602;45.192;5.722;2023-03-23T04:16:05;98907.78;;;13.28;60.59
62548;BME280;48602;45.192;5.722;2023-03-23T04:18:32;98905.22;;;13.27;60.56
62548;BME280;48602;45.192;5.722;2023-03-23T04:20:59;98910.38;;;13.30;60.53
62548;BME280;48602;45.192;5.722;2023-03-23T04:23:30;98908.56;;;13.31;60.79
62548;BME280;48602;45.192;5.722;2023-03-23T04:25:58;98908.56;;;13.31;60.33
62548;BME280;48602;45.192;5.722;2023-03-23T04:28:24;98912.00;;;13.33;60.52
62548;BME280;48602;45.192;5.722;2023-03-23T04:30:51;98907.63;;;13.32;60.53
62548;BME280;48602;45.192;5.722;2023-03-23T04:33:22;98906.00;;;13.29;60.36
62548;BME280;48602;45.192;5.722;2023-03-23T04:35:51;98910.59;;;13.25;60.59
62548;BME280;48602;45.192;5.722;2023-03-23T04:38:17;98907.22;;;13.23;60.50
62548;BME280;48602;45.192;5.722;2023-03-23T04:40:46;98908.16;;;13.22;60.61
62548;BME280;48602;45.192;5.722;2023-03-23T04:43:12;98903.19;;;13.16;61.01
62548;BME280;48602;45.192;5.722;2023-03-23T04:45:41;98898.81;;;13.15;60.99
62548;BME280;48602;45.192;5.722;2023-03-23T04:48:11;98897.16;;;13.13;60.85
62548;BME280;48602;45.192;5.722;2023-03-23T04:50:37;98900.91;;;13.09;60.99
62548;BME280;48602;45.192;5.722;2023-03-23T04:53:04;98900.97;;;13.07;61.25
62548;BME280;48602;45.192;5.722;2023-03-23T04:55:35;98904.47;;;13.08;60.91
62548;BME280;48602;45.192;5.722;2023-03-23T04:58:02;98902.81;;;13.07;60.98
62548;BME280;48602;45.192;5.722;2023-03-23T05:00:28;98905.44;;;13.07;60.92
62548;BME280;48602;45.192;5.722;2023-03-23T05:02:54;98915.19;;;13.06;60.78
62548;BME280;48602;45.192;5.722;2023-03-23T05:05:21;98910.03;;;13.03;61.05
62548;BME280;48602;45.192;5.722;2023-03-23T05:07:47;98907.47;;;13.02;61.21
62548;BME280;48602;45.192;5.722;2023-03-23T05:10:13;98908.41;;;13.01;61.01
62548;BME280;48602;45.192;5.722;2023-03-23T05:12:41;98906.78;;;12.98;61.29
62548;BME280;48602;45.192;5.722;2023-03-23T05:15:07;98905.91;;;12.98;61.32
62548;BME280;48602;45.192;5.722;2023-03-23T05:17:33;98902.50;;;12.96;61.20
62548;BME280;48602;45.192;5.722;2023-03-23T05:19:59;98907.78;;;12.96;61.34
62548;BME280;48602;45.192;5.722;2023-03-23T05:22:28;98906.06;;;12.94;61.13
62548;BME280;48602;45.192;5.722;2023-03-23T05:24:58;98902.66;;;12.92;60.99
62548;BME280;48602;45.192;5.722;2023-03-23T05:27:23;98912.38;;;12.92;61.07
62548;BME280;48602;45.192;5.722;2023-03-23T05:29:48;98913.31;;;12.91;60.62
62548;BME280;48602;45.192;5.722;2023-03-23T05:32:15;98907.16;;;12.90;60.82
62548;BME280;48602;45.192;5.722;2023-03-23T05:34:42;98901.88;;;12.90;60.60
62548;BME280;48602;45.192;5.722;2023-03-23T05:37:08;98906.22;;;12.91;60.79
62548;BME280;48602;45.192;5.722;2023-03-23T05:39:35;98911.44;;;12.93;60.61
62548;BME280;48602;45.192;5.722;2023-03-23T05:42:02;98924.59;;;12.94;60.59
62548;BME280;48602;45.192;5.722;2023-03-23T05:44:28;98920.16;;;12.95;60.80
62548;BME280;48602;45.192;5.722;2023-03-23T05:46:54;98911.22;;;12.98;60.77
62548;BME280;48602;45.192;5.722;2023-03-23T05:49:21;98916.34;;;13.01;60.27
62548;BME280;48602;45.192;5.722;2023-03-23T05:51:47;98920.72;;;13.02;60.35
62548;BME280;48602;45.192;5.722;2023-03-23T05:54:15;98913.63;;;13.02;60.18
62548;BME280;48602;45.192;5.722;2023-03-23T05:56:41;98920.47;;;13.06;60.17
62548;BME280;48602;45.192;5.722;2023-03-23T05:59:07;98923.84;;;13.08;60.01
62548;BME280;48602;45.192;5.722;2023-03-23T06:01:33;98929.72;;;13.15;59.82
62548;BME280;48602;45.192;5.722;2023-03-23T06:03:59;98925.22;;;13.17;59.64
62548;BME280;48602;45.192;5.722;2023-03-23T06:06:25;98936.50;;;13.20;59.76
62548;BME280;48602;45.192;5.722;2023-03-23T06:08:52;98949.66;;;13.22;59.63
62548;BME280;48602;45.192;5.722;2023-03-23T06:11:18;98937.28;;;13.22;59.43
62548;BME280;48602;45.192;5.722;2023-03-23T06:13:45;98941.53;;;13.25;59.91
62548;BME280;48602;45.192;5.722;2023-03-23T06:16:17;98949.31;;;13.28;59.62
62548;BME280;48602;45.192;5.722;2023-03-23T06:18:49;98948.38;;;13.29;59.58
62548;BME280;48602;45.192;5.722;2023-03-23T06:21:14;98943.94;;;13.30;59.54
62548;BME280;48602;45.192;5.722;2023-03-23T06:23:40;98946.50;;;13.31;59.69
62548;BME280;48602;45.192;5.722;2023-03-23T06:26:07;98940.97;;;13.36;59.68
62548;BME280;48602;45.192;5.722;2023-03-23T06:28:34;98945.91;;;13.42;59.59
62548;BME280;48602;45.192;5.722;2023-03-23T06:31:03;98951.97;;;13.44;59.42
62548;BME280;48602;45.192;5.722;2023-03-23T06:33:36;98951.13;;;13.43;59.46
62548;BME280;48602;45.192;5.722;2023-03-23T06:36:03;98958.22;;;13.43;59.07
62548;BME280;48602;45.192;5.722;2023-03-23T06:38:30;98959.16;;;13.42;59.43
62548;BME280;48602;45.192;5.722;2023-03-23T06:40:55;98960.00;;;13.42;58.85
62548;BME280;48602;45.192;5.722;2023-03-23T06:43:22;98950.47;;;13.40;58.88
62548;BME280;48602;45.192;5.722;2023-03-23T06:45:48;98949.59;;;13.39;59.50
62548;BME280;48602;45.192;5.722;2023-03-23T06:48:14;98954.63;;;13.44;58.99
62548;BME280;48602;45.192;5.722;2023-03-23T06:50:43;98955.16;;;13.50;59.01
62548;BME280;48602;45.192;5.722;2023-03-23T06:53:09;98959.16;;;13.57;58.87
62548;BME280;48602;45.192;5.722;2023-03-23T06:55:36;98952.44;;;13.68;58.43
62548;BME280;48602;45.192;5.722;2023-03-23T06:58:04;98951.91;;;13.77;58.32
62548;BME280;48602;45.192;5.722;2023-03-23T07:00:31;98950.56;;;13.85;57.96
62548;BME280;48602;45.192;5.722;2023-03-23T07:02:57;98955.69;;;13.88;57.28
62548;BME280;48602;45.192;5.722;2023-03-23T07:05:23;98955.59;;;13.90;57.29
62548;BME280;48602;45.192;5.722;2023-03-23T07:07:48;98956.53;;;13.89;57.40
62548;BME280;48602;45.192;5.722;2023-03-23T07:10:14;98951.16;;;13.90;57.28
62548;BME280;48602;45.192;5.722;2023-03-23T07:12:40;98940.66;;;13.89;57.17
62548;BME280;48602;45.192;5.722;2023-03-23T07:15:07;98948.50;;;13.90;57.27
62548;BME280;48602;45.192;5.722;2023-03-23T07:17:35;98955.59;;;13.90;57.13
62548;BME280;48602;45.192;5.722;2023-03-23T07:20:00;98956.53;;;13.89;57.09
62548;BME280;48602;45.192;5.722;2023-03-23T07:22:26;98958.34;;;13.88;56.80
62548;BME280;48602;45.192;5.722;2023-03-23T07:24:51;98960.91;;;13.90;56.94
62548;BME280;48602;45.192;5.722;2023-03-23T07:27:17;98953.53;;;13.95;57.04
62548;BME280;48602;45.192;5.722;2023-03-23T07:29:42;98959.44;;;14.00;56.95
62548;BME280;48602;45.192;5.722;2023-03-23T07:32:12;98954.06;;;14.02;56.75
62548;BME280;48602;45.192;5.722;2023-03-23T07:34:37;98960.81;;;14.07;56.74
62548;BME280;48602;45.192;5.722;2023-03-23T07:37:03;98958.56;;;14.15;56.43
62548;BME280;48602;45.192;5.722;2023-03-23T07:39:29;98969.00;;;14.18;56.21
62548;BME280;48602;45.192;5.722;2023-03-23T07:41:55;98968.81;;;14.21;56.19
62548;BME280;48602;45.192;5.722;2023-03-23T07:44:21;98969.59;;;14.23;55.62
62548;BME280;48602;45.192;5.722;2023-03-23T07:46:47;98974.91;;;14.23;55.38
62548;BME280;48602;45.192;5.722;2023-03-23T07:49:13;98974.03;;;14.23;55.51
62548;BME280;48602;45.192;5.722;2023-03-23T07:51:39;98973.19;;;14.22;55.38
62548;BME280;48602;45.192;5.722;2023-03-23T07:54:05;98968.06;;;14.19;55.13
62548;BME280;48602;45.192;5.722;2023-03-23T07:56:34;98974.22;;;14.20;55.27
62548;BME280;48602;45.192;5.722;2023-03-23T07:59:00;98975.16;;;14.19;54.87
62548;BME280;48602;45.192;5.722;2023-03-23T08:01:26;98977.88;;;14.17;55.23
62548;BME280;48602;45.192;5.722;2023-03-23T08:03:53;98976.19;;;14.16;55.13
62548;BME280;48602;45.192;5.722;2023-03-23T08:06:20;98976.19;;;14.16;54.53
62548;BME280;48602;45.192;5.722;2023-03-23T08:08:46;98985.06;;;14.15;54.43
62548;BME280;48602;45.192;5.722;2023-03-23T08:11:12;98979.78;;;14.15;54.66
62548;BME280;48602;45.192;5.722;2023-03-23T08:13:41;98983.44;;;14.13;54.32
62548;BME280;48602;45.192;5.722;2023-03-23T08:16:08;98987.13;;;14.10;54.60
62548;BME280;48602;45.192;5.722;2023-03-23T08:18:34;98991.47;;;14.11;54.98
62548;BME280;48602;45.192;5.722;2023-03-23T08:21:02;98982.59;;;14.12;54.63
62548;BME280;48602;45.192;5.722;2023-03-23T08:23:31;98980.63;;;14.16;54.78
62548;BME280;48602;45.192;5.722;2023-03-23T08:25:59;98981.47;;;14.16;54.30
62548;BME280;48602;45.192;5.722;2023-03-23T08:28:25;98970.03;;;14.16;54.91
62548;BME280;48602;45.192;5.722;2023-03-23T08:30:50;98969.09;;;14.17;55.09
62548;BME280;48602;45.192;5.722;2023-03-23T08:33:16;98966.09;;;14.23;54.84
62548;BME280;48602;45.192;5.722;2023-03-23T08:35:42;98970.94;;;14.30;54.99
62548;BME280;48602;45.192;5.722;2023-03-23T08:38:10;98979.31;;;14.39;55.17
62548;BME280;48602;45.192;5.722;2023-03-23T08:40:37;98986.00;;;14.46;54.91
62548;BME280;48602;45.192;5.722;2023-03-23T08:43:04;98975.97;;;14.51;54.53
62548;BME280;48602;45.192;5.722;2023-03-23T08:45:30;98978.38;;;14.55;55.23
62548;BME280;48602;45.192;5.722;2023-03-23T08:47:56;98970.97;;;14.60;54.97
62548;BME280;48602;45.192;5.722;2023-03-23T08:50:27;98977.47;;;14.71;55.03
62548;BME280;48602;45.192;5.722;2023-03-23T08:52:53;98982.31;;;14.78;55.10
62548;BME280;48602;45.192;5.722;2023-03-23T08:55:20;98998.81;;;14.83;55.27
62548;BME280;48602;45.192;5.722;2023-03-23T08:57:46;98999.84;;;14.81;55.42
62548;BME280;48602;45.192;5.722;2023-03-23T09:00:14;99001.91;;;14.76;55.53
62548;BME280;48602;45.192;5.722;2023-03-23T09:02:49;99004.94;;;14.70;56.14
62548;BME280;48602;45.192;5.722;2023-03-23T09:05:17;99011.53;;;14.62;56.38
62548;BME280;48602;45.192;5.722;2023-03-23T09:07:45;99007.47;;;14.57;56.79
62548;BME280;48602;45.192;5.722;2023-03-23T09:10:12;99007.97;;;14.48;57.41
62548;BME280;48602;45.192;5.722;2023-03-23T09:12:39;99015.50;;;14.40;58.20
62548;BME280;48602;45.192;5.722;2023-03-23T09:15:06;99022.88;;;14.35;58.02
62548;BME280;48602;45.192;5.722;2023-03-23T09:17:39;99022.34;;;14.28;58.99
62548;BME280;48602;45.192;5.722;2023-03-23T09:20:08;99026.22;;;14.22;58.50
62548;BME280;48602;45.192;5.722;2023-03-23T09:22:38;99023.81;;;14.18;59.00
62548;BME280;48602;45.192;5.722;2023-03-23T09:25:06;99038.25;;;14.12;59.04
62548;BME280;48602;45.192;5.722;2023-03-23T09:27:32;99032.47;;;14.06;59.39
62548;BME280;48602;45.192;5.722;2023-03-23T09:29:58;99035.13;;;14.06;59.45
62548;BME280;48602;45.192;5.722;2023-03-23T09:32:26;99033.13;;;14.09;59.33
62548;BME280;48602;45.192;5.722;2023-03-23T09:34:51;99028.28;;;14.17;59.67
62548;BME280;48602;45.192;5.722;2023-03-23T09:37:20;99027.56;;;14.29;59.12
62548;BME280;48602;45.192;5.722;2023-03-23T09:39:45;99023.38;;;14.41;59.04
62548;BME280;48602;45.192;5.722;2023-03-23T09:42:37;99033.78;;;14.60;58.35
62548;BME280;48602;45.192;5.722;2023-03-23T09:45:13;99038.22;;;14.75;57.54
62548;BME280;48602;45.192;5.722;2023-03-23T09:48:04;99028.69;;;14.87;57.45
62548;BME280;48602;45.192;5.722;2023-03-23T09:50:34;99024.53;;;14.97;57.34
62548;BME280;48602;45.192;5.722;2023-03-23T09:55:35;99011.47;;;15.08;57.67
62548;BME280;48602;45.192;5.722;2023-03-23T10:03:43;99028.13;;;15.40;57.29
62548;BME280;48602;45.192;5.722;2023-03-23T10:06:15;99043.78;;;15.45;57.47
62548;BME280;48602;45.192;5.722;2023-03-23T10:08:49;99025.66;;;15.51;57.18
62548;BME280;48602;45.192;5.722;2023-03-23T10:11:42;99036.91;;;15.56;57.74
62548;BME280;48602;45.192;5.722;2023-03-23T10:14:27;99033.38;;;15.56;57.66
62548;BME280;48602;45.192;5.722;2023-03-23T10:19:34;99040.66;;;15.52;57.76
62548;BME280;48602;45.192;5.722;2023-03-23T10:22:10;99046.59;;;15.57;57.68
62548;BME280;48602;45.192;5.722;2023-03-23T10:24:43;99040.19;;;15.60;58.17
62548;BME280;48602;45.192;5.722;2023-03-23T10:32:58;99054.31;;;15.46;59.18
62548;BME280;48602;45.192;5.722;2023-03-23T10:35:32;99042.81;;;15.46;59.12
62548;BME280;48602;45.192;5.722;2023-03-23T10:38:06;99045.38;;;15.47;59.45
62548;BME280;48602;45.192;5.722;2023-03-23T10:40:48;99041.88;;;15.47;59.49
62548;BME280;48602;45.192;5.722;2023-03-23T10:43:14;99042.72;;;15.47;59.74
62548;BME280;48602;45.192;5.722;2023-03-23T10:45:44;99051.56;;;15.48;59.48
62548;BME280;48602;45.192;5.722;2023-03-23T10:48:28;99044.44;;;15.48;59.79
62548;BME280;48602;45.192;5.722;2023-03-23T10:50:59;99035.44;;;15.51;60.24
62548;BME280;48602;45.192;5.722;2023-03-23T10:53:43;99045.03;;;15.53;59.22
62548;BME280;48602;45.192;5.722;2023-03-23T10:56:39;99026.28;;;15.56;59.84
62548;BME280;48602;45.192;5.722;2023-03-23T11:01:41;99027.38;;;15.81;58.61
62548;BME280;48602;45.192;5.722;2023-03-23T11:04:16;99038.66;;;15.98;58.26
62548;BME280;48602;45.192;5.722;2023-03-23T11:06:49;99030.00;;;16.09;58.15
62548;BME280;48602;45.192;5.722;2023-03-23T11:09:19;99032.94;;;16.19;57.42
62548;BME280;48602;45.192;5.722;2023-03-23T11:11:51;99026.81;;;16.31;56.80
62548;BME280;48602;45.192;5.722;2023-03-23T11:14:24;99022.34;;;16.31;56.99
62548;BME280;48602;45.192;5.722;2023-03-23T11:16:52;99007.53;;;16.27;56.50
62548;BME280;48602;45.192;5.722;2023-03-23T11:19:34;99038.59;;;16.27;56.63
62548;BME280;48602;45.192;5.722;2023-03-23T11:22:07;99022.63;;;16.27;57.10
62548;BME280;48602;45.192;5.722;2023-03-23T11:24:41;99008.28;;;16.29;57.02
62548;BME280;48602;45.192;5.722;2023-03-23T11:27:07;99006.09;;;16.36;56.76
62548;BME280;48602;45.192;5.722;2023-03-23T11:29:34;98996.97;;;16.40;57.09
62548;BME280;48602;45.192;5.722;2023-03-23T11:34:42;99012.88;;;16.54;56.76
62548;BME280;48602;45.192;5.722;2023-03-23T11:37:15;98990.41;;;16.58;57.45
62548;BME280;48602;45.192;5.722;2023-03-23T11:42:20;98983.44;;;16.70;56.83
62548;BME280;48602;45.192;5.722;2023-03-23T11:44:47;98977.50;;;16.79;56.34
62548;BME280;48602;45.192;5.722;2023-03-23T11:47:22;98984.00;;;16.88;56.59
62548;BME280;48602;45.192;5.722;2023-03-23T11:50:10;98978.69;;;17.00;56.90
62548;BME280;48602;45.192;5.722;2023-03-23T11:52:52;98982.56;;;17.09;56.04
62548;BME280;48602;45.192;5.722;2023-03-23T11:55:23;98954.81;;;17.12;55.53
62548;BME280;48602;45.192;5.722;2023-03-23T11:57:51;98968.16;;;17.12;55.52
62548;BME280;48602;45.192;5.722;2023-03-23T12:00:21;98969.25;;;17.09;55.46
62548;BME280;48602;45.192;5.722;2023-03-23T12:03:07;98957.84;;;17.07;55.25
62548;BME280;48602;45.192;5.722;2023-03-23T12:05:45;98964.53;;;17.13;55.15
62548;BME280;48602;45.192;5.722;2023-03-23T12:11:31;98936.31;;;17.23;55.14
62548;BME280;48602;45.192;5.722;2023-03-23T12:17:05;98957.72;;;17.34;54.50
62548;BME280;48602;45.192;5.722;2023-03-23T12:22:58;98949.41;;;17.26;55.20
62548;BME280;48602;45.192;5.722;2023-03-23T12:36:32;98934.16;;;17.02;56.56
62548;BME280;48602;45.192;5.722;2023-03-23T12:39:50;98931.16;;;16.94;56.84
62548;BME280;48602;45.192;5.722;2023-03-23T12:45:04;98917.97;;;16.80;57.12
62548;BME280;48602;45.192;5.722;2023-03-23T12:48:04;98923.63;;;16.76;57.47
62548;BME280;48602;45.192;5.722;2023-03-23T12:50:43;98922.03;;;16.73;57.52
62548;BME280;48602;45.192;5.722;2023-03-23T12:53:23;98918.16;;;16.77;57.20
62548;BME280;48602;45.192;5.722;2023-03-23T12:56:16;98918.28;;;16.76;57.31
62548;BME280;48602;45.192;5.722;2023-03-23T12:58:46;98906.91;;;16.73;57.46
62548;BME280;48602;45.192;5.722;2023-03-23T13:06:46;98896.00;;;16.64;58.17
62548;BME280;48602;45.192;5.722;2023-03-23T13:12:11;98895.97;;;16.51;59.01
62548;BME280;48602;45.192;5.722;2023-03-23T13:20:34;98892.84;;;16.32;59.89
62548;BME280;48602;45.192;5.722;2023-03-23T13:23:13;98890.28;;;16.30;60.08
62548;BME280;48602;45.192;5.722;2023-03-23T13:26:00;98886.56;;;16.33;60.27
62548;BME280;48602;45.192;5.722;2023-03-23T13:28:47;98888.47;;;16.31;59.96
62548;BME280;48602;45.192;5.722;2023-03-23T13:31:22;98875.47;;;16.26;60.36
62548;BME280;48602;45.192;5.722;2023-03-23T13:34:21;98868.34;;;16.27;60.22
62548;BME280;48602;45.192;5.722;2023-03-23T13:47:40;98858.13;;;16.21;60.57
62548;BME280;48602;45.192;5.722;2023-03-23T13:58:43;98876.00;;;16.19;61.11
62548;BME280;48602;45.192;5.722;2023-03-23T14:00:48;98851.22;;;16.18;61.05
62548;BME280;48602;45.192;5.722;2023-03-23T14:03:24;98849.19;;;16.22;60.88
62548;BME280;48602;45.192;5.722;2023-03-23T14:08:45;98837.38;;;16.26;60.77
62548;BME280;48602;45.192;5.722;2023-03-23T14:11:20;98840.03;;;16.26;61.13
62548;BME280;48602;45.192;5.722;2023-03-23T14:13:58;98833.91;;;16.25;61.33
62548;BME280;48602;45.192;5.722;2023-03-23T14:22:35;98840.28;;;16.23;61.04
62548;BME280;48602;45.192;5.722;2023-03-23T14:24:41;98837.91;;;16.18;61.09
62548;BME280;48602;45.192;5.722;2023-03-23T14:27:13;98838.88;;;16.17;61.69
62548;BME280;48602;45.192;5.722;2023-03-23T14:29:39;98828.44;;;16.14;61.49
62548;BME280;48602;45.192;5.722;2023-03-23T14:32:07;98840.78;;;16.15;61.51
62548;BME280;48602;45.192;5.722;2023-03-23T14:34:35;98837.91;;;16.18;61.02
62548;BME280;48602;45.192;5.722;2023-03-23T14:37:01;98839.41;;;16.22;60.90
62548;BME280;48602;45.192;5.722;2023-03-23T14:39:33;98839.22;;;16.25;60.88
62548;BME280;48602;45.192;5.722;2023-03-23T14:42:12;98839.72;;;16.30;60.74
62548;BME280;48602;45.192;5.722;2023-03-23T14:44:42;98846.75;;;16.31;60.65
62548;BME280;48602;45.192;5.722;2023-03-23T14:47:22;98843.03;;;16.34;60.71
62548;BME280;48602;45.192;5.722;2023-03-23T14:49:57;98845.69;;;16.34;60.63
62548;BME280;48602;45.192;5.722;2023-03-23T14:52:27;98850.16;;;16.33;60.41
62548;BME280;48602;45.192;5.722;2023-03-23T14:54:55;98846.44;;;16.36;60.91
62548;BME280;48602;45.192;5.722;2023-03-23T14:57:28;98839.22;;;16.38;60.71
62548;BME280;48602;45.192;5.722;2023-03-23T14:59:55;98838.06;;;16.42;60.25
62548;BME280;48602;45.192;5.722;2023-03-23T15:02:35;98835.81;;;16.49;60.42
62548;BME280;48602;45.192;5.722;2023-03-23T15:05:27;98846.91;;;16.55;60.58
62548;BME280;48602;45.192;5.722;2023-03-23T15:08:01;98844.03;;;16.58;60.23
62548;BME280;48602;45.192;5.722;2023-03-23T15:10:29;98847.75;;;16.56;60.30